createdAt,value
2018-01-28T00:00:04.664Z,10.7
2018-01-28T00:15:04.604Z,11
2018-01-28T00:30:04.237Z,11
2018-01-28T00:45:05.508Z,10.6
2018-01-28T01:00:04.673Z,10.5
2018-01-28T01:15:04.570Z,10.6
2018-01-28T01:30:04.918Z,10.5
2018-01-28T01:45:05.069Z,10.5
2018-01-28T02:00:04.520Z,10.4
2018-01-28T02:15:04.596Z,10.2
2018-01-28T02:30:05.016Z,10.2
2018-01-28T02:45:04.498Z,10.3
2018-01-28T03:00:04.587Z,10.5
2018-01-28T03:15:04.961Z,10.5
2018-01-28T03:30:05.084Z,10.5
2018-01-28T03:45:04.558Z,10.5
2018-01-28T04:00:04.926Z,10.5
2018-01-28T04:15:04.413Z,10.3
2018-01-28T04:30:05.163Z,10.2
2018-01-28T04:45:05.231Z,10
2018-01-28T05:00:05.324Z,9.9
2018-01-28T05:15:04.485Z,9.8
2018-01-28T05:30:04.590Z,9.8
2018-01-28T05:45:09.292Z,9.8
2018-01-28T06:00:05.689Z,9.7
2018-01-28T06:15:08.269Z,9.5
2018-01-28T06:30:08.353Z,9.5
2018-01-28T06:45:04.360Z,9.3
2018-01-28T07:00:04.749Z,9.7
2018-01-28T07:15:05.158Z,9.7
2018-01-28T07:30:04.709Z,9.8
2018-01-28T07:45:05.409Z,9.8
2018-01-28T08:00:04.357Z,10.1
2018-01-28T08:15:04.445Z,10.3
2018-01-28T08:30:04.582Z,10.3
2018-01-28T08:45:04.943Z,10.4
2018-01-28T09:00:04.429Z,10.3
2018-01-28T09:30:04.600Z,10.5
2018-01-28T09:45:04.711Z,11.2
2018-01-28T10:00:04.819Z,11.4
2018-01-28T10:15:04.885Z,11.5
2018-01-28T10:30:05.736Z,11.2
2018-01-28T10:45:05.356Z,11.7
2018-01-28T11:00:04.236Z,12.5
2018-01-28T11:15:04.659Z,13
2018-01-28T11:30:05.048Z,13
2018-01-28T11:45:05.413Z,12.9
2018-01-28T12:00:05.579Z,13.1
2018-01-28T12:15:05.047Z,13.2
2018-01-28T12:30:04.492Z,13.1
2018-01-28T12:45:04.942Z,13.3
2018-01-28T13:00:04.712Z,13.5
2018-01-28T13:15:08.532Z,12.9
2018-01-28T13:30:04.900Z,12.9
2018-01-28T13:45:04.429Z,12.7
2018-01-28T14:00:04.395Z,12.3
2018-01-28T14:15:04.861Z,12.3
2018-01-28T14:30:04.988Z,12.2
2018-01-28T14:45:05.061Z,12.3
2018-01-28T15:00:04.629Z,12.4
2018-01-28T15:15:04.675Z,12.3
2018-01-28T15:30:04.474Z,12.4
2018-01-28T15:45:04.897Z,12.3
2018-01-28T16:00:04.930Z,12.2
2018-01-28T16:15:04.399Z,11.9
2018-01-28T16:30:04.780Z,11.6
2018-01-28T16:45:04.707Z,11.4
2018-01-28T17:00:04.650Z,11.3
2018-01-28T17:15:05.101Z,11.1
2018-01-28T17:30:04.244Z,10.7
2018-01-28T17:45:04.636Z,10.7
2018-01-28T18:00:04.959Z,10.6
2018-01-28T18:15:04.385Z,10.7
2018-01-28T18:30:05.026Z,10.7
2018-01-28T18:45:04.563Z,10.7
2018-01-28T19:00:05.001Z,10.6
2018-01-28T19:15:04.377Z,10.4
2018-01-28T19:30:04.998Z,10.4
2018-01-28T19:45:04.335Z,10.4
2018-01-28T20:00:07.479Z,10.5
2018-01-28T20:15:07.707Z,10.4
2018-01-28T20:30:04.264Z,10.4
2018-01-28T20:45:05.170Z,10.3
2018-01-28T21:00:04.596Z,10.2
2018-01-28T21:15:04.612Z,10.1
2018-01-28T21:30:04.989Z,9.9
2018-01-28T21:45:05.668Z,9.7
2018-01-28T22:00:04.569Z,9.5
2018-01-28T22:15:04.468Z,9.4
2018-01-28T22:30:05.074Z,9.3
2018-01-28T22:45:04.557Z,9
2018-01-28T23:00:07.794Z,9
2018-01-28T23:15:04.827Z,8.7
2018-01-28T23:30:05.557Z,8.6
2018-01-28T23:45:04.932Z,8.5
